createdAt,value
2023-03-26T00:01:14.640Z,1.38
2023-03-26T00:04:16.957Z,1.08
2023-03-26T00:07:19.754Z,1.13
2023-03-26T00:10:22.905Z,1.25
2023-03-26T00:13:26.044Z,1.00
2023-03-26T00:16:29.453Z,1.00
2023-03-26T00:19:31.852Z,1.13
2023-03-26T00:22:34.297Z,1.00
2023-03-26T00:25:37.176Z,1.10
2023-03-26T00:28:39.451Z,1.17
2023-03-26T00:31:41.760Z,1.30
2023-03-26T00:34:44.045Z,1.10
2023-03-26T00:37:46.051Z,1.08
2023-03-26T00:40:48.384Z,1.02
2023-03-26T00:43:51.215Z,1.00
2023-03-26T00:46:53.917Z,1.30
2023-03-26T00:49:56.855Z,1.00
2023-03-26T00:53:00.102Z,1.08
2023-03-26T00:56:03.099Z,1.15
2023-03-26T00:59:06.245Z,1.00
2023-03-26T01:02:08.660Z,1.10
2023-03-26T01:05:11.754Z,1.23
2023-03-26T01:08:14.661Z,1.00
2023-03-26T01:11:17.982Z,1.13
2023-03-26T01:14:21.023Z,1.50
2023-03-26T01:17:23.313Z,1.45
2023-03-26T01:20:26.305Z,1.00
2023-03-26T01:23:30.175Z,1.20
2023-03-26T01:26:33.481Z,1.10
2023-03-26T01:29:36.590Z,1.08
2023-03-26T01:32:39.172Z,1.23
2023-03-26T01:35:42.396Z,1.33
2023-03-26T01:38:45.804Z,0.95
2023-03-26T01:41:48.952Z,1.00
2023-03-26T01:44:51.824Z,1.17
2023-03-26T01:47:54.316Z,1.20
2023-03-26T01:50:56.627Z,1.42
2023-03-26T01:53:59.322Z,1.10
2023-03-26T01:57:03.012Z,1.10
2023-03-26T02:00:06.474Z,1.10
2023-03-26T02:03:16.210Z,1.10
2023-03-26T02:06:19.396Z,1.15
2023-03-26T02:09:22.060Z,1.00
2023-03-26T02:12:25.182Z,1.42
2023-03-26T02:15:27.197Z,1.25
2023-03-26T02:18:29.642Z,1.58
2023-03-26T02:21:32.911Z,1.20
2023-03-26T02:24:36.718Z,1.00
2023-03-26T02:27:39.635Z,1.00
2023-03-26T02:30:45.622Z,1.10
2023-03-26T02:33:48.476Z,1.55
2023-03-26T02:36:51.518Z,1.10
2023-03-26T02:39:54.786Z,1.35
2023-03-26T02:43:05.052Z,0.90
2023-03-26T02:46:09.901Z,0.95
2023-03-26T02:49:31.094Z,0.95
2023-03-26T02:52:34.174Z,1.27
2023-03-26T02:55:37.180Z,1.30
2023-03-26T02:58:39.990Z,1.10
2023-03-26T03:01:43.150Z,1.00
2023-03-26T03:04:48.182Z,1.20
2023-03-26T03:07:50.573Z,0.93
2023-03-26T03:10:53.016Z,1.10
2023-03-26T03:14:05.592Z,1.10
2023-03-26T03:17:09.007Z,1.17
2023-03-26T03:20:11.511Z,1.13
2023-03-26T03:23:14.850Z,0.90
2023-03-26T03:26:17.950Z,1.08
2023-03-26T03:29:25.948Z,1.10
2023-03-26T03:32:29.340Z,1.30
2023-03-26T03:35:36.591Z,1.30
2023-03-26T03:38:40.027Z,0.95
2023-03-26T03:41:44.299Z,1.10
2023-03-26T03:44:53.898Z,1.33
2023-03-26T03:48:28.771Z,1.10
2023-03-26T03:51:32.272Z,1.30
2023-03-26T03:54:37.437Z,1.40
2023-03-26T03:57:58.261Z,1.15
2023-03-26T04:01:01.825Z,1.15
2023-03-26T04:04:39.217Z,1.50
2023-03-26T04:07:45.458Z,1.10
2023-03-26T04:11:10.867Z,1.30
2023-03-26T04:14:31.463Z,1.45
2023-03-26T04:17:40.622Z,1.60
2023-03-26T04:20:45.938Z,1.30
2023-03-26T04:23:53.995Z,1.42
2023-03-26T04:27:21.802Z,1.40
2023-03-26T04:30:24.544Z,1.60
2023-03-26T04:33:34.618Z,1.42
2023-03-26T04:36:37.755Z,1.30
2023-03-26T04:39:40.456Z,1.40
2023-03-26T04:43:05.711Z,1.42
2023-03-26T04:46:26.921Z,1.40
2023-03-26T04:49:39.691Z,1.38
2023-03-26T04:52:43.255Z,1.40
2023-03-26T04:55:56.662Z,1.48
2023-03-26T04:59:19.280Z,1.92
2023-03-26T05:02:21.307Z,1.55
2023-03-26T05:05:28.125Z,1.50
2023-03-26T05:08:34.485Z,1.50
2023-03-26T05:11:37.911Z,1.42
2023-03-26T05:14:41.102Z,1.67
2023-03-26T05:17:50.173Z,1.50
2023-03-26T05:21:15.841Z,1.35
2023-03-26T05:24:19.497Z,1.80
2023-03-26T05:27:22.845Z,1.92
2023-03-26T05:30:26.005Z,1.73
2023-03-26T05:33:32.897Z,1.58
2023-03-26T05:36:41.012Z,1.67
2023-03-26T05:40:18.580Z,1.50
2023-03-26T05:43:29.372Z,1.63
2023-03-26T05:46:52.558Z,1.55
2023-03-26T05:49:58.593Z,1.70
2023-03-26T05:53:01.614Z,1.60
2023-03-26T05:56:16.334Z,1.88
2023-03-26T05:59:37.956Z,1.40
2023-03-26T06:02:59.283Z,1.90
2023-03-26T06:06:20.426Z,1.60
2023-03-26T06:09:31.188Z,1.60
2023-03-26T06:12:34.142Z,1.70
2023-03-26T06:15:43.326Z,1.90
2023-03-26T06:19:07.015Z,1.38
2023-03-26T06:22:29.504Z,1.80
2023-03-26T06:26:07.036Z,1.75
2023-03-26T06:29:28.232Z,1.60
2023-03-26T06:32:51.153Z,1.80
2023-03-26T06:35:59.075Z,1.80
2023-03-26T06:39:07.636Z,1.80
2023-03-26T06:42:13.507Z,1.45
2023-03-26T06:45:36.012Z,1.83
2023-03-26T06:49:13.686Z,1.40
2023-03-26T06:52:28.583Z,1.70
2023-03-26T06:55:45.190Z,1.92
2023-03-26T06:59:00.990Z,1.50
2023-03-26T07:02:06.240Z,1.75
2023-03-26T07:05:27.941Z,1.50
2023-03-26T07:08:59.618Z,1.77
2023-03-26T07:12:01.998Z,1.88
2023-03-26T07:15:24.075Z,1.50
2023-03-26T07:18:32.920Z,1.67
2023-03-26T07:21:38.472Z,1.67
2023-03-26T07:24:56.484Z,1.70
2023-03-26T07:28:17.711Z,1.52
2023-03-26T07:31:36.915Z,1.60
2023-03-26T07:34:59.769Z,1.40
2023-03-26T07:38:10.090Z,1.85
2023-03-26T07:41:30.761Z,1.73
2023-03-26T07:44:51.438Z,1.40
2023-03-26T07:48:03.155Z,2.00
2023-03-26T07:51:37.764Z,1.50
2023-03-26T07:54:45.975Z,1.40
2023-03-26T07:58:07.162Z,1.63
2023-03-26T08:01:30.095Z,1.65
2023-03-26T08:04:33.361Z,1.48
2023-03-26T08:07:47.452Z,1.45
2023-03-26T08:10:56.289Z,1.50
2023-03-26T08:14:02.431Z,1.55
2023-03-26T08:17:05.167Z,1.85
2023-03-26T08:20:08.280Z,1.60
2023-03-26T08:23:14.455Z,1.38
2023-03-26T08:26:17.912Z,1.60
2023-03-26T08:29:21.129Z,1.58
2023-03-26T08:32:23.790Z,1.67
2023-03-26T08:35:26.525Z,1.60
2023-03-26T08:38:29.008Z,1.70
2023-03-26T08:41:32.016Z,1.58
2023-03-26T08:44:34.734Z,1.48
2023-03-26T08:47:37.587Z,1.55
2023-03-26T08:50:40.272Z,2.00
2023-03-26T08:53:43.147Z,1.48
2023-03-26T08:56:47.998Z,1.50
2023-03-26T08:59:50.587Z,1.60
2023-03-26T09:02:53.711Z,1.60
2023-03-26T09:05:56.094Z,2.13
2023-03-26T09:08:59.762Z,1.73
2023-03-26T09:12:02.145Z,1.70
2023-03-26T09:15:05.564Z,1.75
2023-03-26T09:18:07.782Z,1.65
2023-03-26T09:21:10.293Z,1.80
2023-03-26T09:24:12.524Z,1.67
2023-03-26T09:27:15.363Z,1.98
2023-03-26T09:30:18.389Z,1.70
2023-03-26T09:33:22.406Z,1.90
2023-03-26T09:36:25.005Z,1.80
2023-03-26T09:39:27.349Z,1.70
2023-03-26T09:42:30.515Z,1.90
2023-03-26T09:45:33.988Z,2.20
2023-03-26T09:48:36.283Z,1.67
2023-03-26T09:51:38.700Z,1.75
2023-03-26T09:54:41.437Z,1.90
2023-03-26T09:57:44.384Z,1.90
2023-03-26T10:00:48.470Z,1.65
2023-03-26T10:03:51.406Z,1.80
2023-03-26T10:06:54.919Z,1.98
2023-03-26T10:09:58.196Z,1.65
2023-03-26T10:13:12.019Z,1.95
2023-03-26T10:16:17.360Z,2.05
2023-03-26T10:19:19.684Z,1.90
2023-03-26T10:22:22.816Z,1.92
2023-03-26T10:25:26.580Z,2.22
2023-03-26T10:28:29.502Z,1.80
2023-03-26T10:31:32.208Z,2.03
2023-03-26T10:34:36.704Z,2.20
2023-03-26T10:37:40.408Z,2.10
2023-03-26T10:40:43.048Z,1.75
2023-03-26T10:43:54.597Z,1.73
2023-03-26T10:47:04.170Z,2.20
2023-03-26T10:50:06.872Z,1.80
2023-03-26T10:53:10.111Z,1.80
2023-03-26T10:56:13.864Z,2.10
2023-03-26T10:59:16.667Z,2.20
2023-03-26T11:02:28.996Z,1.98
2023-03-26T11:05:33.614Z,2.13
2023-03-26T11:08:35.944Z,2.20
2023-03-26T11:11:38.360Z,2.20
2023-03-26T11:14:41.401Z,2.10
2023-03-26T11:17:44.574Z,2.10
2023-03-26T11:20:47.741Z,2.10
2023-03-26T11:24:05.256Z,1.88
2023-03-26T11:27:16.002Z,2.05
2023-03-26T11:30:19.110Z,2.00
2023-03-26T11:33:22.040Z,1.80
2023-03-26T11:36:25.095Z,1.95
2023-03-26T11:39:28.634Z,2.30
2023-03-26T11:42:31.135Z,1.88
2023-03-26T11:45:34.229Z,2.08
2023-03-26T11:48:36.955Z,1.90
2023-03-26T11:51:40.925Z,1.80
2023-03-26T11:54:44.898Z,1.80
2023-03-26T11:57:47.947Z,2.00
2023-03-26T12:00:51.001Z,1.92
2023-03-26T12:03:53.923Z,1.90
2023-03-26T12:06:56.699Z,1.70
2023-03-26T12:10:18.067Z,1.60
2023-03-26T12:13:22.062Z,1.63
2023-03-26T12:16:24.865Z,2.00
2023-03-26T12:19:27.581Z,1.75
2023-03-26T12:22:30.349Z,1.58
2023-03-26T12:25:33.504Z,1.80
2023-03-26T12:28:36.018Z,2.05
2023-03-26T12:31:38.807Z,1.60
2023-03-26T12:34:40.919Z,1.67
2023-03-26T12:37:43.863Z,1.38
2023-03-26T12:40:46.737Z,1.65
2023-03-26T12:44:54.605Z,1.67
2023-03-26T12:47:55.116Z,1.45
2023-03-26T12:50:35.757Z,1.73
2023-03-26T12:53:38.688Z,1.42
2023-03-26T12:56:41.291Z,1.40
2023-03-26T12:59:44.047Z,1.70
2023-03-26T13:02:46.850Z,1.50
2023-03-26T13:05:49.668Z,1.50
2023-03-26T13:08:52.363Z,1.42
2023-03-26T13:11:55.796Z,1.38
2023-03-26T13:14:58.012Z,1.80
2023-03-26T13:18:00.216Z,1.60
2023-03-26T13:21:03.143Z,1.45
2023-03-26T13:24:05.651Z,1.50
2023-03-26T13:27:08.162Z,1.60
2023-03-26T13:30:11.085Z,1.40
2023-03-26T13:33:15.269Z,1.50
2023-03-26T13:36:23.860Z,1.48
2023-03-26T13:39:27.287Z,1.70
2023-03-26T13:42:29.866Z,1.88
2023-03-26T13:45:33.158Z,1.67
2023-03-26T13:48:35.699Z,1.63
2023-03-26T13:51:38.406Z,1.60
2023-03-26T13:54:41.318Z,1.30
2023-03-26T13:57:44.097Z,1.52
2023-03-26T14:00:47.761Z,1.50
2023-03-26T14:03:50.123Z,1.38
2023-03-26T14:06:53.336Z,1.40
2023-03-26T14:09:56.219Z,1.50
2023-03-26T14:12:59.140Z,1.25
2023-03-26T14:16:01.523Z,1.02
2023-03-26T14:19:04.584Z,1.20
2023-03-26T14:22:07.451Z,1.25
2023-03-26T14:25:10.554Z,1.83
2023-03-26T14:28:14.412Z,1.38
2023-03-26T14:31:18.087Z,1.30
2023-03-26T14:34:21.094Z,1.40
2023-03-26T14:37:27.237Z,1.15
2023-03-26T14:40:30.728Z,1.20
2023-03-26T14:43:33.887Z,1.23
2023-03-26T14:46:37.185Z,1.40
2023-03-26T14:49:41.780Z,1.30
2023-03-26T14:52:44.902Z,1.27
2023-03-26T14:55:47.663Z,1.38
2023-03-26T14:58:50.329Z,1.40
2023-03-26T15:01:53.005Z,1.38
2023-03-26T15:04:56.768Z,1.30
2023-03-26T15:07:59.850Z,1.52
2023-03-26T15:11:02.703Z,1.15
2023-03-26T15:14:05.294Z,1.38
2023-03-26T15:17:08.092Z,1.30
2023-03-26T15:20:11.017Z,1.20
2023-03-26T15:23:14.229Z,1.33
2023-03-26T15:26:17.734Z,1.10
2023-03-26T15:29:20.179Z,1.30
2023-03-26T15:32:23.831Z,1.50
2023-03-26T15:35:27.795Z,1.45
2023-03-26T15:38:30.826Z,1.08
2023-03-26T15:41:33.592Z,1.30
2023-03-26T15:44:50.926Z,1.20
2023-03-26T15:47:56.995Z,1.05
2023-03-26T15:50:59.895Z,1.40
2023-03-26T15:54:02.581Z,1.10
2023-03-26T15:57:05.362Z,1.10
2023-03-26T16:00:07.878Z,1.42
2023-03-26T16:03:14.096Z,1.33
2023-03-26T16:06:16.901Z,1.30
2023-03-26T16:09:20.025Z,1.10
2023-03-26T16:12:22.495Z,1.33
2023-03-26T16:15:25.292Z,1.35
2023-03-26T16:18:28.824Z,1.13
2023-03-26T16:21:32.804Z,1.60
2023-03-26T16:24:35.592Z,1.27
2023-03-26T16:27:39.245Z,1.10
2023-03-26T16:30:42.340Z,1.20
2023-03-26T16:33:46.116Z,1.20
2023-03-26T16:36:48.954Z,1.05
2023-03-26T16:39:52.584Z,1.65
2023-03-26T16:42:55.235Z,1.23
2023-03-26T16:45:58.225Z,1.20
2023-03-26T16:49:00.211Z,1.50
2023-03-26T16:52:03.421Z,1.15
2023-03-26T16:55:06.448Z,1.10
2023-03-26T16:58:09.163Z,1.23
2023-03-26T17:01:11.786Z,1.25
2023-03-26T17:04:14.803Z,1.02
2023-03-26T17:07:17.479Z,1.40
2023-03-26T17:10:20.543Z,1.20
2023-03-26T17:13:23.619Z,1.20
2023-03-26T17:16:26.507Z,1.00
2023-03-26T17:19:29.237Z,1.00
2023-03-26T17:22:31.609Z,1.25
2023-03-26T17:25:35.506Z,1.55
2023-03-26T17:28:58.701Z,1.17
2023-03-26T17:32:01.679Z,1.30
2023-03-26T17:35:05.626Z,1.20
2023-03-26T17:38:09.460Z,1.00
2023-03-26T17:41:12.221Z,1.10
2023-03-26T17:44:14.883Z,1.13
2023-03-26T17:47:17.582Z,1.00
2023-03-26T17:50:19.918Z,1.00
2023-03-26T17:53:23.258Z,1.10
2023-03-26T17:56:26.133Z,1.10
2023-03-26T17:59:29.183Z,0.90
2023-03-26T18:02:31.768Z,1.30
2023-03-26T18:05:34.304Z,0.95
2023-03-26T18:08:36.869Z,1.15
2023-03-26T18:11:39.796Z,1.30
2023-03-26T18:14:42.367Z,0.95
2023-03-26T18:17:44.937Z,1.00
2023-03-26T18:20:48.052Z,1.00
2023-03-26T18:23:51.120Z,1.02
2023-03-26T18:26:53.458Z,1.00
2023-03-26T18:29:56.292Z,0.93
2023-03-26T18:33:04.063Z,0.97
2023-03-26T18:36:06.899Z,0.90
2023-03-26T18:39:10.206Z,1.17
2023-03-26T18:42:22.871Z,0.85
2023-03-26T18:45:26.629Z,1.05
2023-03-26T18:48:29.310Z,1.20
2023-03-26T18:51:36.497Z,1.10
2023-03-26T18:54:46.967Z,1.08
2023-03-26T18:57:49.899Z,0.77
2023-03-26T19:00:53.040Z,0.90
2023-03-26T19:03:55.846Z,0.90
2023-03-26T19:06:58.585Z,0.85
2023-03-26T19:10:01.472Z,1.05
2023-03-26T19:13:04.885Z,0.80
2023-03-26T19:16:08.674Z,0.80
2023-03-26T19:19:11.292Z,0.98
2023-03-26T19:22:14.657Z,0.80
2023-03-26T19:25:17.716Z,0.70
2023-03-26T19:28:20.556Z,0.80
2023-03-26T19:31:23.096Z,0.90
2023-03-26T19:34:26.056Z,1.00
2023-03-26T19:37:29.661Z,0.73
2023-03-26T19:40:32.505Z,0.80
2023-03-26T19:43:35.287Z,0.93
2023-03-26T19:46:53.414Z,1.00
2023-03-26T19:49:57.415Z,1.00
2023-03-26T19:53:14.686Z,0.98
2023-03-26T19:56:19.026Z,0.95
2023-03-26T19:59:21.702Z,0.80
2023-03-26T20:02:24.719Z,0.82
2023-03-26T20:05:27.702Z,1.15
2023-03-26T20:08:30.472Z,1.17
2023-03-26T20:11:33.214Z,1.00
2023-03-26T20:14:36.687Z,0.95
2023-03-26T20:17:39.253Z,0.93
2023-03-26T20:20:42.219Z,0.68
2023-03-26T20:23:45.012Z,0.90
2023-03-26T20:26:47.785Z,0.98
2023-03-26T20:29:50.893Z,0.98
2023-03-26T20:33:12.604Z,0.80
2023-03-26T20:36:32.722Z,1.00
2023-03-26T20:39:37.468Z,1.00
2023-03-26T20:42:40.268Z,0.80
2023-03-26T20:45:43.228Z,1.02
2023-03-26T20:48:46.845Z,1.10
2023-03-26T20:51:49.621Z,0.90
2023-03-26T20:54:52.114Z,1.08
2023-03-26T20:57:54.984Z,0.93
2023-03-26T21:00:58.642Z,0.82
2023-03-26T21:04:01.273Z,0.80
2023-03-26T21:07:15.143Z,0.70
2023-03-26T21:10:20.259Z,0.80
2023-03-26T21:13:23.115Z,0.82
2023-03-26T21:16:26.119Z,0.80
2023-03-26T21:19:30.021Z,0.80
2023-03-26T21:22:32.925Z,0.80
2023-03-26T21:25:35.464Z,1.00
2023-03-26T21:28:42.357Z,0.93
2023-03-26T21:31:46.231Z,0.65
2023-03-26T21:34:58.670Z,0.85
2023-03-26T21:38:02.019Z,0.80
2023-03-26T21:41:05.207Z,0.80
2023-03-26T21:44:07.480Z,0.85
2023-03-26T21:47:09.917Z,0.80
2023-03-26T21:50:12.494Z,0.82
2023-03-26T21:53:15.255Z,1.00
2023-03-26T21:56:18.072Z,0.85
2023-03-26T21:59:22.012Z,0.85
2023-03-26T22:02:25.954Z,0.80
2023-03-26T22:05:29.373Z,0.70
2023-03-26T22:08:31.786Z,0.95
2023-03-26T22:11:35.025Z,0.85
2023-03-26T22:14:38.025Z,0.82
2023-03-26T22:17:41.153Z,0.80
2023-03-26T22:20:43.633Z,0.77
2023-03-26T22:23:46.710Z,1.08
2023-03-26T22:26:50.198Z,0.93
2023-03-26T22:29:53.292Z,0.75
2023-03-26T22:32:56.833Z,0.80
2023-03-26T22:36:00.184Z,0.90
2023-03-26T22:39:03.761Z,0.75
2023-03-26T22:42:06.973Z,0.63
2023-03-26T22:45:11.149Z,1.05
2023-03-26T22:48:13.567Z,0.75
2023-03-26T22:51:16.517Z,0.70
2023-03-26T22:54:19.111Z,0.70
2023-03-26T22:57:22.012Z,0.80
2023-03-26T23:00:24.764Z,0.68
2023-03-26T23:03:35.093Z,0.80
2023-03-26T23:06:38.332Z,0.63
2023-03-26T23:09:41.774Z,1.02
2023-03-26T23:12:44.180Z,1.00
2023-03-26T23:15:47.323Z,0.90
2023-03-26T23:18:50.752Z,0.50
2023-03-26T23:21:54.163Z,0.70
2023-03-26T23:24:56.390Z,0.70
2023-03-26T23:27:59.298Z,0.70
2023-03-26T23:31:02.098Z,0.68
2023-03-26T23:34:05.039Z,0.70
2023-03-26T23:37:07.787Z,0.80
2023-03-26T23:40:10.629Z,0.77
2023-03-26T23:43:13.608Z,0.80
2023-03-26T23:46:16.709Z,0.80
2023-03-26T23:49:20.179Z,0.52
2023-03-26T23:52:22.885Z,0.77
2023-03-26T23:55:25.633Z,0.77
2023-03-26T23:58:28.581Z,0.77
